createdAt,value
2023-02-06T00:00:44.081Z,77.96
2023-02-06T00:02:46.773Z,77.91
2023-02-06T00:04:49.369Z,77.66
2023-02-06T00:06:52.039Z,77.80
2023-02-06T00:08:54.732Z,77.68
2023-02-06T00:10:57.331Z,77.88
2023-02-06T00:12:59.966Z,77.85
2023-02-06T00:15:04.033Z,77.83
2023-02-06T00:17:06.644Z,78.33
2023-02-06T00:19:09.230Z,78.25
2023-02-06T00:21:11.932Z,78.33
2023-02-06T00:23:14.525Z,78.14
2023-02-06T00:25:17.178Z,78.16
2023-02-06T00:27:19.754Z,78.01
2023-02-06T00:29:22.356Z,78.51
2023-02-06T00:31:26.372Z,78.17
2023-02-06T00:33:28.924Z,78.05
2023-02-06T00:35:31.523Z,78.35
2023-02-06T00:37:34.089Z,78.68
2023-02-06T00:39:37.031Z,78.27
2023-02-06T00:41:39.608Z,78.91
2023-02-06T00:43:43.437Z,78.39
2023-02-06T00:45:45.984Z,78.17
2023-02-06T00:47:49.973Z,78.60
2023-02-06T00:49:52.514Z,78.72
2023-02-06T00:51:55.168Z,78.24
2023-02-06T00:53:57.766Z,78.33
2023-02-06T00:56:00.490Z,78.48
2023-02-06T00:58:03.069Z,77.95
2023-02-06T01:00:07.468Z,78.49
2023-02-06T01:02:10.108Z,78.39
2023-02-06T01:04:14.063Z,78.52
2023-02-06T01:06:16.621Z,78.26
2023-02-06T01:08:19.149Z,78.76
2023-02-06T01:10:21.699Z,78.96
2023-02-06T01:12:24.378Z,78.90
2023-02-06T01:14:26.956Z,78.85
2023-02-06T01:16:29.641Z,78.89
2023-02-06T01:18:32.326Z,78.63
2023-02-06T01:20:36.514Z,78.70
2023-02-06T01:22:39.242Z,78.42
2023-02-06T01:24:41.814Z,78.68
2023-02-06T01:26:44.365Z,78.86
2023-02-06T01:28:48.840Z,78.74
2023-02-06T01:30:51.545Z,78.93
2023-02-06T01:32:54.089Z,78.74
2023-02-06T01:34:59.271Z,78.62
2023-02-06T01:37:03.430Z,79.00
2023-02-06T01:39:06.697Z,78.81
2023-02-06T01:41:10.500Z,78.84
2023-02-06T01:43:19.060Z,78.62
2023-02-06T01:45:40.750Z,79.08
2023-02-06T01:47:43.345Z,78.48
2023-02-06T01:49:50.591Z,78.94
2023-02-06T01:51:57.043Z,78.57
2023-02-06T01:54:04.774Z,78.75
2023-02-06T01:56:09.122Z,78.42
2023-02-06T01:58:15.525Z,78.86
2023-02-06T02:00:19.341Z,78.83
2023-02-06T02:02:23.620Z,78.55
2023-02-06T02:04:29.257Z,78.68
2023-02-06T02:06:32.239Z,78.72
2023-02-06T02:08:39.201Z,78.74
2023-02-06T02:10:43.250Z,78.07
2023-02-06T02:12:45.812Z,78.26
2023-02-06T02:14:50.948Z,78.70
2023-02-06T02:17:07.461Z,78.69
2023-02-06T02:19:45.455Z,78.51
2023-02-06T02:22:26.009Z,78.65
2023-02-06T02:24:54.097Z,79.21
2023-02-06T02:27:16.513Z,79.23
2023-02-06T02:29:47.016Z,78.96
2023-02-06T02:32:27.506Z,79.06
2023-02-06T02:35:29.928Z,79.12
2023-02-06T02:37:44.499Z,78.99
2023-02-06T02:39:56.275Z,79.07
2023-02-06T02:42:00.921Z,79.49
2023-02-06T02:44:08.846Z,79.18
2023-02-06T02:46:18.814Z,79.53
2023-02-06T02:48:25.525Z,79.58
2023-02-06T02:50:29.468Z,79.68
2023-02-06T02:52:32.052Z,79.66
2023-02-06T02:54:35.956Z,79.60
2023-02-06T02:56:39.659Z,79.51
2023-02-06T02:58:42.926Z,79.61
2023-02-06T03:00:49.443Z,79.20
2023-02-06T03:02:53.606Z,79.25
2023-02-06T03:04:59.913Z,79.00
2023-02-06T03:07:11.502Z,79.17
2023-02-06T03:09:23.202Z,79.42
2023-02-06T03:11:28.145Z,79.12
2023-02-06T03:13:35.486Z,79.11
2023-02-06T03:15:48.856Z,79.28
2023-02-06T03:17:57.347Z,79.20
2023-02-06T03:20:03.467Z,78.68
2023-02-06T03:22:06.748Z,78.96
2023-02-06T03:24:14.818Z,78.95
2023-02-06T03:26:21.386Z,79.13
2023-02-06T03:28:29.600Z,79.03
2023-02-06T03:30:33.926Z,79.00
2023-02-06T03:32:42.342Z,78.82
2023-02-06T03:34:52.915Z,78.85
2023-02-06T03:36:55.871Z,78.96
2023-02-06T03:38:59.033Z,78.55
2023-02-06T03:41:02.982Z,79.03
2023-02-06T03:43:06.858Z,78.63
2023-02-06T03:45:16.852Z,78.86
2023-02-06T03:47:22.018Z,78.92
2023-02-06T03:49:28.901Z,78.79
2023-02-06T03:51:36.190Z,78.85
2023-02-06T03:53:40.520Z,78.95
2023-02-06T03:55:45.618Z,78.83
2023-02-06T03:57:52.486Z,78.60
2023-02-06T03:59:55.057Z,78.90
2023-02-06T04:02:02.622Z,78.71
2023-02-06T04:04:05.720Z,78.62
2023-02-06T04:06:08.623Z,78.67
2023-02-06T04:08:11.246Z,78.93
2023-02-06T04:10:13.897Z,78.98
2023-02-06T04:12:17.017Z,78.90
2023-02-06T04:14:19.727Z,79.06
2023-02-06T04:16:22.459Z,78.88
2023-02-06T04:18:27.633Z,79.34
2023-02-06T04:20:30.615Z,78.95
2023-02-06T04:22:33.383Z,79.27
2023-02-06T04:24:36.791Z,78.91
2023-02-06T04:26:39.349Z,78.92
2023-02-06T04:28:41.925Z,78.52
2023-02-06T04:30:44.556Z,78.42
2023-02-06T04:32:47.209Z,78.34
2023-02-06T04:34:51.251Z,78.04
2023-02-06T04:36:53.821Z,78.50
2023-02-06T04:38:56.382Z,78.43
2023-02-06T04:41:03.821Z,77.83
2023-02-06T04:43:06.404Z,77.79
2023-02-06T04:45:10.320Z,77.77
2023-02-06T04:47:12.919Z,78.09
2023-02-06T04:49:16.323Z,78.12
2023-02-06T04:51:23.258Z,77.90
2023-02-06T04:53:25.824Z,77.90
2023-02-06T04:55:28.748Z,77.80
2023-02-06T04:57:31.359Z,77.83
2023-02-06T04:59:33.951Z,77.99
2023-02-06T05:01:36.589Z,77.85
2023-02-06T05:03:39.191Z,77.99
2023-02-06T05:05:41.719Z,78.01
2023-02-06T05:07:45.609Z,78.25
2023-02-06T05:09:48.149Z,78.20
2023-02-06T05:11:50.798Z,78.50
2023-02-06T05:13:53.698Z,78.22
2023-02-06T05:15:58.023Z,78.22
2023-02-06T05:18:00.658Z,78.05
2023-02-06T05:20:03.832Z,78.04
2023-02-06T05:22:06.381Z,77.80
2023-02-06T05:24:10.372Z,78.17
2023-02-06T05:26:12.993Z,78.08
2023-02-06T05:28:15.565Z,77.72
2023-02-06T05:30:19.099Z,77.87
2023-02-06T05:32:21.718Z,77.87
2023-02-06T05:34:24.425Z,78.12
2023-02-06T05:36:26.968Z,78.29
2023-02-06T05:38:29.575Z,78.18
2023-02-06T05:40:33.546Z,78.22
2023-02-06T05:42:36.341Z,77.97
2023-02-06T05:44:38.904Z,77.88
2023-02-06T05:46:41.499Z,78.10
2023-02-06T05:48:44.056Z,78.44
2023-02-06T05:50:49.230Z,77.88
2023-02-06T05:52:51.800Z,77.95
2023-02-06T05:54:54.365Z,78.20
2023-02-06T05:56:58.276Z,77.91
2023-02-06T05:59:00.849Z,78.17
2023-02-06T06:01:03.403Z,78.17
2023-02-06T06:03:05.975Z,78.23
2023-02-06T06:05:09.162Z,77.69
2023-02-06T06:07:11.770Z,78.03
2023-02-06T06:09:14.355Z,78.11
2023-02-06T06:11:16.955Z,78.28
2023-02-06T06:13:20.925Z,77.86
2023-02-06T06:15:23.612Z,78.25
2023-02-06T06:17:26.206Z,78.24
2023-02-06T06:19:28.793Z,78.15
2023-02-06T06:21:31.368Z,77.87
2023-02-06T06:23:34.040Z,78.05
2023-02-06T06:25:37.484Z,77.99
2023-02-06T06:27:40.716Z,78.39
2023-02-06T06:29:44.670Z,78.37
2023-02-06T06:31:47.353Z,78.23
2023-02-06T06:33:49.975Z,78.20
2023-02-06T06:35:52.563Z,78.40
2023-02-06T06:37:55.328Z,78.55
2023-02-06T06:39:57.976Z,78.34
2023-02-06T06:42:00.599Z,78.01
2023-02-06T06:44:03.130Z,78.07
2023-02-06T06:46:07.206Z,78.16
2023-02-06T06:48:09.930Z,77.63
2023-02-06T06:50:12.530Z,78.13
2023-02-06T06:52:24.487Z,78.02
2023-02-06T06:54:28.046Z,78.03
2023-02-06T06:56:30.633Z,78.02
2023-02-06T06:58:33.492Z,77.76
2023-02-06T07:00:37.004Z,78.10
2023-02-06T07:02:42.459Z,78.21
2023-02-06T07:04:45.172Z,78.07
2023-02-06T07:06:50.105Z,78.11
2023-02-06T07:08:52.826Z,77.52
2023-02-06T07:10:55.409Z,77.87
2023-02-06T07:12:58.029Z,77.87
2023-02-06T07:15:00.573Z,77.93
2023-02-06T07:17:03.179Z,78.43
2023-02-06T07:19:08.292Z,78.50
2023-02-06T07:21:11.486Z,78.24
2023-02-06T07:23:14.056Z,77.68
2023-02-06T07:25:17.075Z,78.27
2023-02-06T07:27:20.079Z,77.88
2023-02-06T07:29:22.618Z,78.18
2023-02-06T07:31:25.251Z,77.99
2023-02-06T07:33:30.784Z,77.78
2023-02-06T07:35:34.934Z,78.14
2023-02-06T07:37:37.549Z,78.11
2023-02-06T07:39:40.172Z,77.87
2023-02-06T07:41:42.933Z,78.05
2023-02-06T07:43:45.576Z,77.92
2023-02-06T07:45:48.214Z,77.89
2023-02-06T07:47:51.973Z,77.69
2023-02-06T07:49:54.612Z,77.76
2023-02-06T07:51:58.482Z,77.26
2023-02-06T07:54:01.088Z,77.75
2023-02-06T07:56:03.862Z,77.85
2023-02-06T07:58:06.579Z,77.09
2023-02-06T08:00:10.311Z,77.27
2023-02-06T08:02:13.177Z,77.59
2023-02-06T08:04:15.868Z,77.78
2023-02-06T08:06:19.398Z,77.62
2023-02-06T08:08:23.274Z,77.33
2023-02-06T08:10:26.304Z,77.22
2023-02-06T08:12:30.818Z,76.67
2023-02-06T08:14:33.344Z,77.06
2023-02-06T08:16:35.947Z,75.65
2023-02-06T08:18:39.400Z,76.03
2023-02-06T08:20:41.973Z,75.63
2023-02-06T08:22:44.552Z,75.69
2023-02-06T08:24:48.637Z,75.13
2023-02-06T08:26:51.300Z,75.09
2023-02-06T08:28:58.064Z,75.12
2023-02-06T08:31:00.773Z,74.94
2023-02-06T08:33:03.384Z,75.18
2023-02-06T08:35:06.618Z,74.73
2023-02-06T08:37:09.306Z,74.46
2023-02-06T08:39:14.063Z,74.17
2023-02-06T08:41:22.035Z,73.72
2023-02-06T08:43:24.699Z,73.65
2023-02-06T08:45:27.315Z,73.76
2023-02-06T08:47:29.876Z,73.92
2023-02-06T08:49:32.435Z,73.54
2023-02-06T08:51:36.766Z,73.53
2023-02-06T08:53:40.042Z,73.95
2023-02-06T08:55:42.706Z,73.83
2023-02-06T08:57:46.612Z,73.55
2023-02-06T08:59:49.615Z,72.86
2023-02-06T09:01:52.240Z,72.27
2023-02-06T09:03:55.925Z,71.93
2023-02-06T09:06:09.612Z,71.52
2023-02-06T09:08:12.692Z,71.70
2023-02-06T09:10:26.762Z,71.80
2023-02-06T09:12:30.192Z,71.58
2023-02-06T09:14:35.387Z,72.33
2023-02-06T09:16:38.486Z,71.80
2023-02-06T09:18:41.443Z,71.71
2023-02-06T09:20:46.042Z,72.24
2023-02-06T09:22:48.610Z,71.82
2023-02-06T09:24:51.288Z,72.08
2023-02-06T09:26:59.899Z,72.14
2023-02-06T09:29:05.512Z,72.34
2023-02-06T09:31:10.693Z,72.41
2023-02-06T09:33:13.401Z,72.31
2023-02-06T09:35:16.288Z,72.00
2023-02-06T09:37:18.844Z,71.87
2023-02-06T09:39:21.447Z,71.88
2023-02-06T09:41:31.033Z,71.94
2023-02-06T09:43:36.212Z,72.11
2023-02-06T09:45:40.348Z,71.82
2023-02-06T09:47:48.568Z,71.42
2023-02-06T09:49:54.845Z,71.72
2023-02-06T09:52:08.214Z,71.22
2023-02-06T09:54:23.936Z,71.30
2023-02-06T09:56:35.531Z,71.54
2023-02-06T09:58:44.240Z,71.42
2023-02-06T10:00:53.224Z,71.40
2023-02-06T10:03:13.508Z,70.95
2023-02-06T10:05:24.500Z,71.42
2023-02-06T10:07:43.537Z,71.11
2023-02-06T10:09:50.694Z,71.60
2023-02-06T10:11:56.924Z,71.88
2023-02-06T10:14:02.979Z,71.59
2023-02-06T10:16:07.758Z,72.02
2023-02-06T10:18:16.530Z,71.90
2023-02-06T10:20:22.861Z,72.14
2023-02-06T10:22:29.547Z,72.23
2023-02-06T10:24:38.016Z,71.88
2023-02-06T10:26:41.561Z,72.01
2023-02-06T10:28:48.890Z,72.29
2023-02-06T10:31:10.605Z,71.53
2023-02-06T10:33:25.568Z,71.59
2023-02-06T10:35:36.327Z,72.19
2023-02-06T10:38:04.798Z,71.62
2023-02-06T10:40:30.578Z,70.66
2023-02-06T10:42:51.122Z,70.88
2023-02-06T10:45:18.445Z,70.70
2023-02-06T10:47:32.269Z,70.22
2023-02-06T10:49:41.833Z,71.04
2023-02-06T10:51:48.447Z,71.34
2023-02-06T10:53:53.221Z,70.73
2023-02-06T10:55:58.236Z,70.65
2023-02-06T10:58:08.025Z,70.41
2023-02-06T11:00:18.438Z,70.74
2023-02-06T11:02:25.122Z,70.87
2023-02-06T11:04:34.324Z,70.58
2023-02-06T11:06:40.241Z,70.94
2023-02-06T11:08:46.002Z,70.57
2023-02-06T11:10:49.432Z,70.38
2023-02-06T11:13:00.053Z,70.53
2023-02-06T11:15:07.636Z,70.60
2023-02-06T11:17:15.207Z,70.14
2023-02-06T11:19:20.898Z,70.10
2023-02-06T11:21:53.660Z,70.40
2023-02-06T11:24:10.703Z,70.67
2023-02-06T11:26:15.725Z,70.67
2023-02-06T11:28:20.384Z,70.80
2023-02-06T11:30:30.559Z,70.54
2023-02-06T11:32:37.606Z,70.37
2023-02-06T11:34:51.842Z,70.58
2023-02-06T11:36:58.552Z,70.44
2023-02-06T11:39:03.018Z,69.73
2023-02-06T11:41:16.629Z,69.89
2023-02-06T11:43:22.479Z,69.83
2023-02-06T11:45:28.618Z,70.34
2023-02-06T11:47:33.083Z,70.03
2023-02-06T11:49:35.640Z,69.24
2023-02-06T11:51:53.762Z,69.06
2023-02-06T11:53:59.860Z,68.98
2023-02-06T11:56:06.890Z,69.03
2023-02-06T11:58:22.403Z,69.27
2023-02-06T12:00:25.339Z,68.83
2023-02-06T12:02:31.024Z,69.11
2023-02-06T12:04:37.870Z,69.01
2023-02-06T12:06:41.825Z,68.85
2023-02-06T12:08:48.316Z,68.89
2023-02-06T12:10:58.091Z,69.23
2023-02-06T12:13:07.823Z,68.62
2023-02-06T12:15:39.908Z,68.59
2023-02-06T12:17:41.770Z,67.96
2023-02-06T12:19:49.629Z,68.02
2023-02-06T12:21:55.714Z,68.04
2023-02-06T12:24:02.417Z,68.48
2023-02-06T12:26:12.186Z,68.83
2023-02-06T12:28:18.459Z,68.53
2023-02-06T12:30:31.158Z,68.91
2023-02-06T12:32:37.691Z,67.97
2023-02-06T12:34:53.528Z,67.42
2023-02-06T12:37:10.655Z,67.79
2023-02-06T12:39:19.957Z,68.08
2023-02-06T12:41:44.612Z,67.59
2023-02-06T12:43:54.611Z,67.44
2023-02-06T12:46:02.878Z,67.61
2023-02-06T12:48:12.729Z,68.04
2023-02-06T12:50:19.849Z,67.57
2023-02-06T12:52:27.479Z,67.41
2023-02-06T12:54:34.745Z,67.66
2023-02-06T12:56:42.838Z,67.58
2023-02-06T12:58:55.109Z,67.81
2023-02-06T13:01:28.829Z,67.99
2023-02-06T13:03:41.653Z,67.85
2023-02-06T13:05:47.933Z,67.14
2023-02-06T13:07:52.319Z,67.32
2023-02-06T13:10:01.750Z,66.91
2023-02-06T13:12:13.950Z,66.43
2023-02-06T13:14:20.402Z,64.17
2023-02-06T13:16:23.099Z,64.31
2023-02-06T13:18:53.816Z,64.49
2023-02-06T13:21:17.417Z,64.28
2023-02-06T13:23:24.937Z,64.15
2023-02-06T13:25:51.214Z,64.10
2023-02-06T13:27:55.654Z,63.64
2023-02-06T13:30:18.336Z,63.39
2023-02-06T13:32:53.278Z,63.42
2023-02-06T13:34:59.956Z,63.28
2023-02-06T13:37:20.990Z,63.57
2023-02-06T13:39:33.784Z,63.46
2023-02-06T13:41:37.876Z,62.74
2023-02-06T13:43:43.139Z,62.58
2023-02-06T13:45:50.093Z,62.92
2023-02-06T13:48:29.332Z,62.93
2023-02-06T13:50:59.550Z,62.67
2023-02-06T13:53:19.757Z,62.60
2023-02-06T13:55:36.473Z,62.65
2023-02-06T13:58:14.063Z,62.06
2023-02-06T14:00:21.220Z,62.23
2023-02-06T14:02:28.616Z,62.31
2023-02-06T14:04:33.341Z,62.91
2023-02-06T14:06:55.099Z,62.38
2023-02-06T14:09:10.685Z,62.70
2023-02-06T14:11:31.350Z,63.01
2023-02-06T14:13:44.635Z,63.15
2023-02-06T14:15:58.753Z,63.69
2023-02-06T14:18:16.380Z,63.48
2023-02-06T14:20:30.590Z,63.37
2023-02-06T14:22:43.659Z,63.25
2023-02-06T14:25:04.569Z,63.30
2023-02-06T14:27:24.572Z,63.48
2023-02-06T14:29:39.182Z,63.88
2023-02-06T14:32:09.267Z,64.05
2023-02-06T14:34:25.365Z,63.83
2023-02-06T14:36:46.706Z,63.79
2023-02-06T14:39:36.056Z,63.53
2023-02-06T14:41:39.711Z,62.84
2023-02-06T14:43:45.422Z,62.35
2023-02-06T14:46:05.482Z,62.57
2023-02-06T14:48:20.865Z,62.45
2023-02-06T14:50:26.667Z,62.25
2023-02-06T14:52:33.970Z,62.68
2023-02-06T14:54:39.164Z,62.89
2023-02-06T14:56:41.827Z,62.44
2023-02-06T14:58:46.402Z,62.84
2023-02-06T15:00:49.069Z,63.07
2023-02-06T15:03:04.654Z,62.57
2023-02-06T15:05:08.720Z,63.01
2023-02-06T15:07:23.077Z,62.62
2023-02-06T15:09:28.699Z,62.62
2023-02-06T15:11:33.375Z,62.74
2023-02-06T15:13:37.640Z,62.42
2023-02-06T15:15:54.247Z,62.69
2023-02-06T15:17:58.741Z,62.91
2023-02-06T15:22:31.999Z,63.06
2023-02-06T15:24:55.630Z,63.19
2023-02-06T15:27:04.658Z,62.97
2023-02-06T15:29:18.096Z,63.99
2023-02-06T15:31:23.039Z,64.06
2023-02-06T15:33:29.019Z,64.04
2023-02-06T15:35:34.074Z,63.85
2023-02-06T15:37:38.063Z,63.76
2023-02-06T15:39:40.656Z,63.76
2023-02-06T15:41:46.039Z,63.84
2023-02-06T15:43:49.475Z,63.82
2023-02-06T15:45:55.015Z,63.48
2023-02-06T15:47:59.603Z,63.32
2023-02-06T15:50:02.401Z,63.59
2023-02-06T15:52:06.237Z,64.16
2023-02-06T15:54:20.222Z,63.44
2023-02-06T15:56:26.157Z,63.78
2023-02-06T15:58:29.190Z,63.61
2023-02-06T16:00:34.370Z,64.01
2023-02-06T16:02:40.827Z,63.65
2023-02-06T16:04:43.428Z,64.00
2023-02-06T16:06:47.572Z,63.92
2023-02-06T16:08:52.458Z,63.82
2023-02-06T16:10:59.608Z,64.00
2023-02-06T16:13:03.828Z,63.97
2023-02-06T16:15:27.131Z,63.89
2023-02-06T16:17:34.123Z,63.99
2023-02-06T16:19:52.665Z,64.08
2023-02-06T16:22:05.595Z,64.35
2023-02-06T16:24:16.595Z,64.29
2023-02-06T16:26:25.716Z,64.40
2023-02-06T16:28:29.112Z,63.81
2023-02-06T16:30:36.310Z,64.00
2023-02-06T16:32:39.237Z,63.96
2023-02-06T16:34:43.433Z,64.66
2023-02-06T16:36:45.980Z,64.03
2023-02-06T16:39:02.877Z,63.92
2023-02-06T16:41:25.061Z,64.17
2023-02-06T16:43:28.684Z,64.23
2023-02-06T16:45:31.244Z,64.24
2023-02-06T16:47:33.859Z,64.34
2023-02-06T16:49:36.649Z,63.68
2023-02-06T16:51:41.078Z,64.21
2023-02-06T16:53:44.159Z,64.01
2023-02-06T16:55:46.939Z,64.60
2023-02-06T16:57:53.818Z,64.60
2023-02-06T16:59:56.712Z,64.89
2023-02-06T17:01:59.327Z,64.80
2023-02-06T17:04:01.930Z,64.75
2023-02-06T17:06:06.544Z,64.49
2023-02-06T17:08:16.012Z,64.44
2023-02-06T17:10:20.101Z,64.32
2023-02-06T17:12:23.571Z,64.91
2023-02-06T17:14:27.512Z,65.04
2023-02-06T17:16:31.938Z,64.53
2023-02-06T17:18:34.502Z,64.92
2023-02-06T17:20:39.272Z,65.16
2023-02-06T17:22:41.996Z,64.73
2023-02-06T17:24:45.599Z,64.36
2023-02-06T17:26:50.426Z,64.92
2023-02-06T17:28:53.063Z,65.11
2023-02-06T17:30:57.091Z,64.47
2023-02-06T17:32:59.819Z,64.68
2023-02-06T17:35:02.511Z,64.84
2023-02-06T17:37:09.411Z,65.13
2023-02-06T17:39:13.751Z,65.12
2023-02-06T17:41:16.329Z,65.33
2023-02-06T17:43:18.958Z,65.70
2023-02-06T17:45:21.631Z,65.95
2023-02-06T17:47:26.122Z,66.22
2023-02-06T17:49:28.718Z,66.51
2023-02-06T17:51:31.630Z,66.97
2023-02-06T17:53:34.204Z,66.44
2023-02-06T17:55:37.660Z,66.46
2023-02-06T17:57:40.526Z,67.04
2023-02-06T17:59:43.149Z,67.10
2023-02-06T18:01:45.838Z,67.54
2023-02-06T18:03:50.330Z,67.75
2023-02-06T18:05:57.961Z,68.05
2023-02-06T18:08:00.529Z,67.86
2023-02-06T18:10:03.115Z,68.38
2023-02-06T18:12:05.810Z,68.83
2023-02-06T18:14:08.418Z,68.79
2023-02-06T18:16:15.273Z,68.59
2023-02-06T18:18:18.923Z,68.41
2023-02-06T18:20:23.102Z,68.79
2023-02-06T18:22:25.810Z,69.03
2023-02-06T18:24:28.352Z,68.58
2023-02-06T18:26:30.978Z,68.01
2023-02-06T18:28:34.627Z,68.13
2023-02-06T18:30:37.483Z,68.37
2023-02-06T18:32:40.317Z,68.27
2023-02-06T18:34:42.876Z,68.54
2023-02-06T18:36:46.864Z,67.80
2023-02-06T18:38:49.463Z,67.50
2023-02-06T18:40:52.021Z,67.88
2023-02-06T18:42:54.612Z,67.41
2023-02-06T18:44:57.328Z,68.08
2023-02-06T18:46:59.899Z,68.38
2023-02-06T18:49:02.798Z,68.18
2023-02-06T18:51:08.385Z,68.79
2023-02-06T18:53:12.507Z,69.13
2023-02-06T18:55:15.303Z,69.51
2023-02-06T18:57:18.151Z,69.75
2023-02-06T18:59:20.809Z,69.91
2023-02-06T19:01:25.470Z,69.03
2023-02-06T19:03:28.014Z,69.43
2023-02-06T19:05:30.752Z,68.72
2023-02-06T19:07:33.391Z,68.53
2023-02-06T19:09:37.335Z,67.86
2023-02-06T19:11:41.211Z,68.26
2023-02-06T19:13:44.151Z,67.74
2023-02-06T19:15:46.782Z,67.89
2023-02-06T19:17:50.349Z,67.49
2023-02-06T19:19:53.268Z,68.28
2023-02-06T19:21:56.604Z,67.83
2023-02-06T19:24:01.997Z,67.81
2023-02-06T19:26:08.819Z,67.67
2023-02-06T19:28:11.381Z,68.14
2023-02-06T19:30:14.881Z,68.21
2023-02-06T19:32:17.505Z,69.13
2023-02-06T19:34:20.184Z,69.01
2023-02-06T19:36:24.709Z,69.16
2023-02-06T19:38:27.291Z,69.16
2023-02-06T19:40:29.887Z,68.82
2023-02-06T19:42:33.821Z,68.51
2023-02-06T19:44:37.204Z,68.74
2023-02-06T19:46:39.846Z,68.75
2023-02-06T19:48:44.202Z,68.95
2023-02-06T19:50:46.855Z,68.36
2023-02-06T19:52:49.424Z,68.52
2023-02-06T19:54:52.000Z,68.61
2023-02-06T19:56:55.122Z,68.92
2023-02-06T19:59:01.071Z,69.27
2023-02-06T20:01:08.775Z,68.77
2023-02-06T20:03:11.495Z,68.96
2023-02-06T20:05:14.080Z,69.00
2023-02-06T20:07:16.722Z,69.15
2023-02-06T20:09:21.170Z,69.15
2023-02-06T20:11:24.246Z,69.79
2023-02-06T20:13:26.894Z,69.44
2023-02-06T20:15:31.922Z,69.60
2023-02-06T20:17:34.534Z,69.66
2023-02-06T20:19:37.201Z,69.68
2023-02-06T20:21:41.921Z,69.51
2023-02-06T20:23:44.453Z,69.81
2023-02-06T20:25:47.265Z,69.49
2023-02-06T20:27:49.903Z,69.75
2023-02-06T20:29:52.510Z,70.10
2023-02-06T20:31:56.725Z,69.67
2023-02-06T20:33:59.348Z,70.28
2023-02-06T20:36:06.204Z,70.19
2023-02-06T20:38:08.987Z,70.82
2023-02-06T20:40:11.933Z,70.64
2023-02-06T20:42:15.355Z,71.26
2023-02-06T20:44:18.971Z,71.64
2023-02-06T20:46:21.664Z,71.49
2023-02-06T20:48:26.099Z,71.09
2023-02-06T20:50:30.084Z,71.93
2023-02-06T20:52:33.069Z,71.49
2023-02-06T20:54:35.669Z,72.36
2023-02-06T20:56:38.680Z,72.24
2023-02-06T20:58:41.255Z,71.71
2023-02-06T21:00:43.838Z,72.60
2023-02-06T21:02:46.854Z,73.13
2023-02-06T21:04:52.274Z,72.19
2023-02-06T21:06:55.445Z,72.99
2023-02-06T21:09:00.199Z,72.81
2023-02-06T21:11:03.357Z,73.27
2023-02-06T21:13:05.895Z,73.12
2023-02-06T21:15:09.443Z,72.86
2023-02-06T21:17:12.047Z,73.13
2023-02-06T21:19:20.650Z,73.13
2023-02-06T21:21:25.507Z,72.88
2023-02-06T21:23:28.171Z,73.02
2023-02-06T21:25:30.732Z,72.98
2023-02-06T21:27:33.597Z,73.38
2023-02-06T21:29:36.208Z,72.96
2023-02-06T21:31:39.158Z,73.27
2023-02-06T21:33:41.976Z,73.56
2023-02-06T21:35:50.845Z,73.09
2023-02-06T21:37:54.897Z,73.28
2023-02-06T21:39:57.457Z,73.28
2023-02-06T21:42:01.586Z,73.47
2023-02-06T21:44:04.431Z,72.82
2023-02-06T21:46:07.662Z,73.28
2023-02-06T21:48:10.284Z,73.35
2023-02-06T21:50:12.850Z,73.47
2023-02-06T21:52:15.414Z,73.32
2023-02-06T21:54:19.732Z,73.30
2023-02-06T21:56:24.755Z,72.64
2023-02-06T21:58:27.337Z,72.90
2023-02-06T22:00:29.998Z,72.76
2023-02-06T22:02:35.146Z,73.45
2023-02-06T22:04:37.775Z,73.40
2023-02-06T22:06:40.819Z,72.79
2023-02-06T22:08:47.932Z,72.23
2023-02-06T22:10:51.904Z,72.68
2023-02-06T22:12:55.274Z,72.60
2023-02-06T22:14:57.901Z,72.89
2023-02-06T22:17:00.456Z,72.97
2023-02-06T22:19:03.377Z,72.93
2023-02-06T22:21:07.888Z,73.13
2023-02-06T22:23:10.506Z,73.56
2023-02-06T22:25:13.141Z,73.53
2023-02-06T22:27:17.391Z,73.89
2023-02-06T22:29:20.050Z,72.95
2023-02-06T22:31:25.523Z,73.16
2023-02-06T22:33:28.140Z,73.43
2023-02-06T22:35:30.736Z,73.30
2023-02-06T22:37:34.305Z,72.62
2023-02-06T22:39:36.929Z,72.60
2023-02-06T22:41:40.712Z,72.04
2023-02-06T22:43:46.365Z,72.38
2023-02-06T22:45:50.534Z,71.05
2023-02-06T22:47:53.188Z,70.31
2023-02-06T22:49:55.815Z,70.76
2023-02-06T22:51:58.773Z,69.96
2023-02-06T22:54:00.633Z,68.83
2023-02-06T22:56:23.410Z,68.56
2023-02-06T22:58:26.166Z,68.84
2023-02-06T23:00:30.198Z,68.30
2023-02-06T23:02:32.838Z,67.58
2023-02-06T23:04:36.232Z,67.71
2023-02-06T23:06:38.833Z,67.18
2023-02-06T23:08:42.502Z,66.50
2023-02-06T23:10:47.362Z,66.89
2023-02-06T23:12:49.950Z,66.86
2023-02-06T23:14:52.589Z,66.96
2023-02-06T23:16:57.033Z,66.30
2023-02-06T23:19:01.760Z,66.14
2023-02-06T23:21:07.602Z,66.86
2023-02-06T23:23:10.196Z,66.91
2023-02-06T23:25:12.788Z,65.85
2023-02-06T23:27:15.422Z,65.05
2023-02-06T23:29:19.149Z,65.53
2023-02-06T23:31:21.714Z,64.64
2023-02-06T23:33:25.781Z,64.69
2023-02-06T23:35:28.306Z,63.79
2023-02-06T23:37:30.896Z,63.67
2023-02-06T23:39:35.586Z,63.60
2023-02-06T23:41:38.167Z,63.33
2023-02-06T23:43:41.171Z,63.34
2023-02-06T23:45:43.759Z,63.50
2023-02-06T23:47:46.679Z,63.35
2023-02-06T23:49:50.609Z,62.79
2023-02-06T23:51:53.148Z,62.18
2023-02-06T23:53:55.775Z,62.26
2023-02-06T23:55:58.612Z,62.09
2023-02-06T23:58:01.184Z,61.67
